createdAt,value
2019-01-11T00:00:15.976Z,955.29
2019-01-11T00:01:15.158Z,955.28
2019-01-11T00:02:15.914Z,955.27
2019-01-11T00:03:16.045Z,955.24
2019-01-11T00:04:15.858Z,955.27
2019-01-11T00:05:15.072Z,955.33
2019-01-11T00:06:15.101Z,955.31
2019-01-11T00:07:15.042Z,955.25
2019-01-11T00:08:15.036Z,955.27
2019-01-11T00:09:26.060Z,955.28
2019-01-11T00:10:15.261Z,955.20
2019-01-11T00:11:15.918Z,955.20
2019-01-11T00:12:25.491Z,955.26
2019-01-11T00:13:15.074Z,955.22
2019-01-11T00:14:23.675Z,955.24
2019-01-11T00:15:15.071Z,955.26
2019-01-11T00:16:24.907Z,955.22
2019-01-11T00:17:15.077Z,955.23
2019-01-11T00:18:25.351Z,955.25
2019-01-11T00:19:26.904Z,955.18
2019-01-11T00:21:54.556Z,955.15
2019-01-11T00:23:50.651Z,955.17
2019-01-11T00:25:01.368Z,955.16
2019-01-11T00:25:51.878Z,955.14
2019-01-11T00:26:51.505Z,955.16
2019-01-11T00:28:01.065Z,955.24
2019-01-11T00:28:51.015Z,955.20
2019-01-11T00:29:50.471Z,955.19
2019-01-11T00:30:51.002Z,955.20
2019-01-11T00:32:03.919Z,955.17
2019-01-11T00:32:50.469Z,955.19
2019-01-11T00:33:51.399Z,955.22
2019-01-11T00:34:50.341Z,955.17
2019-01-11T00:35:51.332Z,955.23
2019-01-11T00:36:50.318Z,955.19
2019-01-11T00:38:00.199Z,955.17
2019-01-11T00:39:00.368Z,955.16
2019-01-11T00:39:50.365Z,955.17
2019-01-11T00:40:50.348Z,955.18
2019-01-11T00:41:50.367Z,955.20
2019-01-11T00:42:50.340Z,955.19
2019-01-11T00:46:05.489Z,955.16
2019-01-11T00:47:04.532Z,955.18
2019-01-11T00:48:06.516Z,955.14
2019-01-11T00:49:06.091Z,955.13
2019-01-11T00:50:04.937Z,955.16
2019-01-11T00:51:04.428Z,955.16
2019-01-11T00:52:14.492Z,955.17
2019-01-11T00:53:05.033Z,955.15
2019-01-11T00:54:04.452Z,955.16
2019-01-11T00:55:05.982Z,955.18
2019-01-11T00:56:17.124Z,955.18
2019-01-11T00:57:13.872Z,955.14
2019-01-11T00:58:04.412Z,955.14
2019-01-11T00:59:04.404Z,955.07
2019-01-11T01:00:04.361Z,955.15
2019-01-11T01:01:06.200Z,955.13
2019-01-11T01:02:04.351Z,955.08
2019-01-11T01:03:04.253Z,955.13
2019-01-11T01:04:07.065Z,955.14
2019-01-11T01:05:04.244Z,955.13
2019-01-11T01:06:04.242Z,955.11
2019-01-11T01:07:04.262Z,955.16
2019-01-11T01:08:04.234Z,955.15
2019-01-11T01:09:04.190Z,955.13
2019-01-11T01:10:16.073Z,955.17
2019-01-11T01:11:05.207Z,955.15
2019-01-11T01:12:04.239Z,955.18
2019-01-11T01:13:05.253Z,955.13
2019-01-11T01:14:04.144Z,955.15
2019-01-11T01:15:14.820Z,955.17
2019-01-11T01:16:04.211Z,955.19
2019-01-11T01:17:12.824Z,955.14
2019-01-11T01:18:05.123Z,955.17
2019-01-11T01:19:04.656Z,955.16
2019-01-11T01:20:05.102Z,955.16
2019-01-11T01:21:05.057Z,955.19
2019-01-11T01:22:04.079Z,955.18
2019-01-11T01:23:04.033Z,955.16
2019-01-11T01:24:04.602Z,955.19
2019-01-11T01:25:04.010Z,955.13
2019-01-11T01:26:03.999Z,955.12
2019-01-11T01:27:04.854Z,955.16
2019-01-11T01:28:03.979Z,955.14
2019-01-11T01:29:03.967Z,955.13
2019-01-11T01:30:03.977Z,955.10
2019-01-11T01:31:14.996Z,955.14
2019-01-11T01:33:18.479Z,955.17
2019-01-11T01:34:28.518Z,955.13
2019-01-11T01:36:32.925Z,955.11
2019-01-11T01:37:32.644Z,955.09
2019-01-11T01:38:31.501Z,955.08
2019-01-11T01:39:43.445Z,955.10
2019-01-11T01:40:43.512Z,955.08
2019-01-11T01:41:42.042Z,955.10
2019-01-11T01:42:31.984Z,955.04
2019-01-11T01:43:31.484Z,955.12
2019-01-11T01:44:31.439Z,955.02
2019-01-11T01:45:31.507Z,955.07
2019-01-11T01:46:31.393Z,955.10
2019-01-11T01:47:42.016Z,955.08
2019-01-11T01:48:41.212Z,955.04
2019-01-11T01:49:31.393Z,955.03
2019-01-11T01:50:41.341Z,955.01
2019-01-11T01:53:32.112Z,955.06
2019-01-11T01:55:43.161Z,955.06
2019-01-11T01:56:43.004Z,955.07
2019-01-11T01:57:53.761Z,955.07
2019-01-11T01:58:52.507Z,955.08
2019-01-11T01:59:52.466Z,955.15
2019-01-11T02:00:43.896Z,955.11
2019-01-11T02:01:43.742Z,955.09
2019-01-11T02:02:42.868Z,955.08
2019-01-11T02:03:42.884Z,955.13
2019-01-11T02:04:42.836Z,955.15
2019-01-11T02:05:42.817Z,955.14
2019-01-11T02:06:42.824Z,955.13
2019-01-11T02:07:42.830Z,955.12
2019-01-11T02:08:42.794Z,955.07
2019-01-11T02:09:43.743Z,955.08
2019-01-11T02:10:43.803Z,955.10
2019-01-11T02:11:42.757Z,955.08
2019-01-11T02:12:54.265Z,955.05
2019-01-11T02:13:42.895Z,955.05
2019-01-11T02:14:42.882Z,955.01
2019-01-11T02:15:43.375Z,955.06
2019-01-11T02:16:43.424Z,955.07
2019-01-11T02:17:43.317Z,955.03
2019-01-11T02:18:42.684Z,954.99
2019-01-11T02:19:42.708Z,955.04
2019-01-11T02:20:42.685Z,955.02
2019-01-11T02:21:43.301Z,955.01
2019-01-11T02:22:42.639Z,954.99
2019-01-11T02:23:42.641Z,954.98
2019-01-11T02:24:42.626Z,954.97
2019-01-11T02:25:46.142Z,954.98
2019-01-11T02:26:42.600Z,954.99
2019-01-11T02:27:42.574Z,954.95
2019-01-11T02:28:43.327Z,954.96
2019-01-11T02:29:43.280Z,954.88
2019-01-11T02:30:42.546Z,954.91
2019-01-11T02:31:42.562Z,954.91
2019-01-11T02:32:42.523Z,954.91
2019-01-11T02:33:42.578Z,954.93
2019-01-11T02:34:42.504Z,954.92
2019-01-11T02:35:42.498Z,954.87
2019-01-11T02:36:42.485Z,954.94
2019-01-11T02:37:42.480Z,954.88
2019-01-11T02:38:42.466Z,954.90
2019-01-11T02:39:43.310Z,954.91
2019-01-11T02:40:53.949Z,954.87
2019-01-11T02:41:42.529Z,954.89
2019-01-11T02:42:53.281Z,954.87
2019-01-11T02:43:42.527Z,954.85
2019-01-11T02:44:54.707Z,954.88
2019-01-11T02:45:52.178Z,954.80
2019-01-11T02:46:51.930Z,954.82
2019-01-11T02:47:42.468Z,954.86
2019-01-11T02:48:54.118Z,954.83
2019-01-11T02:49:55.036Z,954.82
2019-01-11T02:50:42.407Z,954.82
2019-01-11T02:51:42.435Z,954.85
2019-01-11T02:52:42.386Z,954.85
2019-01-11T02:53:44.229Z,954.83
2019-01-11T02:54:51.018Z,954.83
2019-01-11T02:55:42.409Z,954.83
2019-01-11T02:56:42.349Z,954.84
2019-01-11T02:57:42.333Z,954.86
2019-01-11T02:58:42.442Z,954.79
2019-01-11T02:59:42.271Z,954.78
2019-01-11T03:00:42.260Z,954.75
2019-01-11T03:01:42.203Z,954.80
2019-01-11T03:02:43.240Z,954.79
2019-01-11T03:03:42.189Z,954.78
2019-01-11T03:04:42.174Z,954.81
2019-01-11T03:05:42.204Z,954.78
2019-01-11T03:07:09.826Z,954.79
2019-01-11T03:07:42.271Z,954.77
2019-01-11T03:08:42.265Z,954.65
2019-01-11T03:09:43.250Z,954.70
2019-01-11T03:10:42.123Z,954.63
2019-01-11T03:11:43.124Z,954.61
2019-01-11T03:12:42.625Z,954.64
2019-01-11T03:13:42.084Z,954.61
2019-01-11T03:14:42.061Z,954.64
2019-01-11T03:15:42.642Z,954.62
2019-01-11T03:16:42.050Z,954.59
2019-01-11T03:17:42.039Z,954.58
2019-01-11T03:18:42.051Z,954.54
2019-01-11T03:19:47.768Z,954.54
2019-01-11T03:20:44.650Z,954.52
2019-01-11T03:21:50.855Z,954.52
2019-01-11T03:25:23.595Z,954.48
2019-01-11T03:26:22.057Z,954.45
2019-01-11T03:27:32.668Z,954.46
2019-01-11T03:28:34.164Z,954.44
2019-01-11T03:29:22.043Z,954.40
2019-01-11T03:30:30.795Z,954.39
2019-01-11T03:31:23.114Z,954.38
2019-01-11T03:32:22.002Z,954.33
2019-01-11T03:33:23.061Z,954.35
2019-01-11T03:34:24.713Z,954.34
2019-01-11T03:35:30.565Z,954.30
2019-01-11T03:36:22.001Z,954.32
2019-01-11T03:37:21.970Z,954.31
2019-01-11T03:38:34.234Z,954.28
2019-01-11T03:39:21.934Z,954.29
2019-01-11T03:40:30.585Z,954.24
2019-01-11T03:41:33.737Z,954.25
2019-01-11T03:42:21.850Z,954.26
2019-01-11T03:43:32.568Z,954.23
2019-01-11T03:44:31.821Z,954.26
2019-01-11T03:45:21.767Z,954.23
2019-01-11T03:46:21.846Z,954.25
2019-01-11T03:47:24.352Z,954.24
2019-01-11T03:48:22.717Z,954.22
2019-01-11T03:49:21.712Z,954.18
2019-01-11T03:50:21.721Z,954.23
2019-01-11T03:51:21.685Z,954.23
2019-01-11T03:52:21.708Z,954.21
2019-01-11T03:53:34.172Z,954.27
2019-01-11T03:55:51.187Z,954.15
2019-01-11T03:58:04.006Z,954.17
2019-01-11T03:59:03.177Z,954.15
2019-01-11T04:00:04.127Z,954.22
2019-01-11T04:01:03.320Z,954.15
2019-01-11T04:02:03.094Z,954.14
2019-01-11T04:03:03.053Z,954.14
2019-01-11T04:04:03.951Z,954.12
2019-01-11T04:05:13.218Z,954.14
2019-01-11T04:06:13.701Z,954.11
2019-01-11T04:07:11.676Z,954.13
2019-01-11T04:08:03.095Z,954.15
2019-01-11T04:09:11.735Z,954.14
2019-01-11T04:10:16.211Z,954.09
2019-01-11T04:11:21.651Z,954.12
2019-01-11T04:12:03.189Z,954.08
2019-01-11T04:13:03.055Z,954.08
2019-01-11T04:14:13.772Z,954.09
2019-01-11T04:15:14.389Z,954.06
2019-01-11T04:16:14.411Z,954.09
2019-01-11T04:18:14.366Z,954.06
2019-01-11T04:19:15.172Z,954.01
2019-01-11T04:20:22.857Z,954.00
2019-01-11T04:23:19.143Z,953.97
2019-01-11T04:26:13.574Z,953.98
2019-01-11T04:27:13.404Z,953.96
2019-01-11T04:28:22.043Z,953.98
2019-01-11T04:29:13.373Z,953.95
2019-01-11T04:30:13.407Z,953.97
2019-01-11T04:31:14.166Z,953.95
2019-01-11T04:32:22.083Z,953.95
2019-01-11T04:33:14.195Z,954.00
2019-01-11T04:34:13.347Z,953.92
2019-01-11T04:35:25.648Z,953.90
2019-01-11T04:36:13.312Z,953.93
2019-01-11T04:38:27.810Z,953.93
2019-01-11T04:39:26.564Z,953.91
2019-01-11T04:40:25.530Z,953.93
2019-01-11T04:41:25.533Z,953.89
2019-01-11T04:42:27.252Z,953.89
2019-01-11T04:43:25.507Z,953.93
2019-01-11T04:44:26.723Z,953.85
2019-01-11T04:45:25.470Z,953.89
2019-01-11T04:46:35.080Z,953.86
2019-01-11T04:47:35.285Z,953.87
2019-01-11T04:48:25.534Z,953.88
2019-01-11T04:49:36.429Z,953.83
2019-01-11T04:51:55.471Z,953.83
2019-01-11T04:52:49.387Z,953.83
2019-01-11T04:54:51.298Z,953.81
2019-01-11T04:56:02.298Z,953.78
2019-01-11T04:56:50.129Z,953.76
2019-01-11T04:57:58.703Z,953.76
2019-01-11T04:58:51.222Z,953.74
2019-01-11T04:59:50.028Z,953.72
2019-01-11T05:00:50.034Z,953.72
2019-01-11T05:01:50.045Z,953.69
2019-01-11T05:02:58.632Z,953.68
2019-01-11T05:03:50.010Z,953.72
2019-01-11T05:04:59.234Z,953.68
2019-01-11T05:05:50.627Z,953.69
2019-01-11T05:06:50.045Z,953.71
2019-01-11T05:07:49.972Z,953.72
2019-01-11T05:08:50.033Z,953.72
2019-01-11T05:09:51.584Z,953.66
2019-01-11T05:10:50.908Z,953.69
2019-01-11T05:12:00.737Z,953.66
2019-01-11T05:12:49.901Z,953.67
2019-01-11T05:13:50.664Z,953.63
2019-01-11T05:14:50.668Z,953.66
2019-01-11T05:16:01.436Z,953.67
2019-01-11T05:16:49.862Z,953.60
2019-01-11T05:17:49.892Z,953.64
2019-01-11T05:18:49.855Z,953.64
2019-01-11T05:19:50.016Z,953.62
2019-01-11T05:20:59.682Z,953.63
2019-01-11T05:21:49.852Z,953.67
2019-01-11T05:22:49.742Z,953.65
2019-01-11T05:23:50.695Z,953.64
2019-01-11T05:24:49.816Z,953.67
2019-01-11T05:25:49.793Z,953.66
2019-01-11T05:26:49.713Z,953.65
2019-01-11T05:27:49.708Z,953.63
2019-01-11T05:28:49.692Z,953.67
2019-01-11T05:31:02.104Z,953.69
2019-01-11T05:32:02.022Z,953.67
2019-01-11T05:33:14.328Z,953.64
2019-01-11T05:34:01.950Z,953.66
2019-01-11T05:35:01.908Z,953.63
2019-01-11T05:36:01.953Z,953.65
2019-01-11T05:37:01.898Z,953.58
2019-01-11T05:38:01.900Z,953.58
2019-01-11T05:39:12.518Z,953.58
2019-01-11T05:40:11.724Z,953.56
2019-01-11T05:41:01.876Z,953.56
2019-01-11T05:42:02.859Z,953.55
2019-01-11T05:43:54.547Z,953.48
2019-01-11T05:45:04.948Z,953.48
2019-01-11T05:46:11.358Z,953.50
2019-01-11T05:46:54.532Z,953.53
2019-01-11T05:47:54.497Z,953.48
2019-01-11T05:49:04.142Z,953.46
2019-01-11T05:49:56.353Z,953.45
2019-01-11T05:51:05.590Z,953.44
2019-01-11T05:52:03.894Z,953.44
2019-01-11T05:53:03.040Z,953.46
2019-01-11T05:53:54.438Z,953.46
2019-01-11T05:54:54.479Z,953.49
2019-01-11T05:56:03.850Z,953.49
2019-01-11T05:56:54.380Z,953.49
2019-01-11T05:57:54.380Z,953.46
2019-01-11T05:58:55.098Z,953.49
2019-01-11T06:00:04.775Z,953.51
2019-01-11T06:00:55.133Z,953.50
2019-01-11T06:02:04.771Z,953.48
2019-01-11T06:02:54.338Z,953.48
2019-01-11T06:03:54.253Z,953.51
2019-01-11T06:04:55.203Z,953.48
2019-01-11T06:06:08.789Z,953.49
2019-01-11T06:07:03.914Z,953.44
2019-01-11T06:08:04.221Z,953.46
2019-01-11T06:09:05.409Z,953.44
2019-01-11T06:09:54.223Z,953.45
2019-01-11T06:11:03.014Z,953.44
2019-01-11T06:11:54.216Z,953.43
2019-01-11T06:13:07.723Z,953.45
2019-01-11T06:13:54.164Z,953.39
2019-01-11T06:14:54.121Z,953.44
2019-01-11T06:15:55.188Z,953.41
2019-01-11T06:17:03.511Z,953.36
2019-01-11T06:17:54.212Z,953.32
2019-01-11T06:18:54.077Z,953.29
2019-01-11T06:20:04.904Z,953.27
2019-01-11T06:20:56.942Z,953.24
2019-01-11T06:22:06.063Z,953.26
2019-01-11T06:22:54.074Z,953.24
2019-01-11T06:23:54.057Z,953.21
2019-01-11T06:24:54.056Z,953.21
2019-01-11T06:25:54.048Z,953.17
2019-01-11T06:27:02.679Z,953.16
2019-01-11T06:29:08.315Z,953.21
2019-01-11T06:30:07.432Z,953.23
2019-01-11T06:31:07.485Z,953.22
2019-01-11T06:32:16.046Z,953.14
2019-01-11T06:33:07.395Z,953.16
2019-01-11T06:34:07.389Z,953.19
2019-01-11T06:35:16.830Z,953.17
2019-01-11T06:36:07.386Z,953.18
2019-01-11T06:37:07.409Z,953.19
2019-01-11T06:38:18.887Z,953.23
2019-01-11T06:40:33.057Z,953.22
2019-01-11T06:41:42.025Z,953.23
2019-01-11T06:42:42.612Z,953.14
2019-01-11T06:43:41.667Z,953.16
2019-01-11T06:44:38.703Z,953.16
2019-01-11T06:45:44.672Z,953.15
2019-01-11T06:47:43.979Z,953.11
2019-01-11T06:48:43.657Z,953.19
2019-01-11T06:49:52.214Z,953.14
2019-01-11T06:50:53.033Z,953.16
2019-01-11T06:51:43.596Z,953.16
2019-01-11T06:53:54.916Z,953.17
2019-01-11T06:56:06.947Z,953.18
2019-01-11T06:58:17.061Z,953.17
2019-01-11T07:00:31.462Z,953.16
2019-01-11T07:02:44.440Z,953.15
2019-01-11T07:06:09.924Z,953.07
2019-01-11T07:07:19.866Z,953.08
2019-01-11T07:08:19.323Z,953.06
2019-01-11T07:09:19.568Z,953.03
2019-01-11T07:10:19.724Z,953.04
2019-01-11T07:12:24.125Z,953.06
2019-01-11T07:13:33.847Z,953.01
2019-01-11T07:14:34.800Z,953.04
2019-01-11T07:15:35.541Z,953.03
2019-01-11T07:16:35.058Z,953.01
2019-01-11T07:17:35.082Z,953.01
2019-01-11T07:18:34.903Z,953.01
2019-01-11T07:19:35.524Z,953.02
2019-01-11T07:20:42.773Z,953.02
2019-01-11T07:21:33.643Z,953.01
2019-01-11T07:22:34.632Z,952.96
2019-01-11T07:23:23.992Z,952.95
2019-01-11T07:25:47.838Z,952.92
2019-01-11T07:26:56.234Z,952.91
2019-01-11T07:27:59.106Z,952.96
2019-01-11T07:28:56.356Z,952.92
2019-01-11T07:29:58.463Z,952.86
2019-01-11T07:31:58.939Z,952.85
2019-01-11T07:33:51.417Z,952.81
2019-01-11T07:34:50.602Z,952.91
2019-01-11T07:35:50.584Z,952.84
2019-01-11T07:37:02.990Z,952.86
2019-01-11T07:38:00.036Z,952.78
2019-01-11T07:39:00.048Z,952.88
2019-01-11T07:41:04.413Z,952.81
2019-01-11T07:43:14.662Z,952.83
2019-01-11T07:44:13.717Z,952.86
2019-01-11T07:45:22.379Z,952.87
2019-01-11T07:46:26.494Z,952.87
2019-01-11T07:47:13.720Z,952.85
2019-01-11T07:48:24.556Z,952.80
2019-01-11T07:49:25.115Z,952.80
2019-01-11T07:50:28.226Z,952.84
2019-01-11T07:51:22.297Z,952.81
2019-01-11T07:52:14.425Z,952.85
2019-01-11T07:53:13.629Z,952.84
2019-01-11T07:54:25.900Z,952.84
2019-01-11T07:55:23.132Z,952.82
2019-01-11T07:57:25.570Z,952.83
2019-01-11T07:58:36.800Z,952.86
2019-01-11T07:59:33.461Z,952.86
2019-01-11T08:01:39.375Z,952.88
2019-01-11T08:04:03.160Z,952.78
2019-01-11T08:06:13.208Z,952.82
2019-01-11T08:07:26.588Z,952.80
2019-01-11T08:08:13.155Z,952.81
2019-01-11T08:10:26.207Z,952.80
2019-01-11T08:11:35.143Z,952.79
2019-01-11T08:13:39.571Z,952.83
2019-01-11T08:14:38.829Z,952.81
2019-01-11T08:15:49.548Z,952.85
2019-01-11T08:16:47.491Z,952.80
2019-01-11T08:17:48.527Z,952.75
2019-01-11T08:21:33.769Z,952.73
2019-01-11T08:23:44.467Z,952.72
2019-01-11T08:24:43.141Z,952.74
2019-01-11T08:26:56.771Z,952.69
2019-01-11T08:28:05.350Z,952.61
2019-01-11T08:28:57.609Z,952.61
2019-01-11T08:30:05.288Z,952.62
2019-01-11T08:30:56.725Z,952.65
2019-01-11T08:32:07.563Z,952.60
2019-01-11T08:32:56.656Z,952.61
2019-01-11T08:34:07.623Z,952.68
2019-01-11T08:34:56.595Z,952.61
2019-01-11T08:36:06.633Z,952.66
2019-01-11T08:37:08.018Z,952.67
2019-01-11T08:37:56.624Z,952.68
2019-01-11T08:39:07.937Z,952.65
2019-01-11T08:41:44.578Z,952.61
2019-01-11T08:42:43.252Z,952.65
2019-01-11T08:43:54.576Z,952.65
2019-01-11T08:44:43.333Z,952.67
2019-01-11T08:45:55.706Z,952.64
2019-01-11T08:46:53.882Z,952.63
2019-01-11T08:47:55.154Z,952.66
2019-01-11T08:48:53.920Z,952.67
2019-01-11T08:49:53.241Z,952.63
2019-01-11T08:50:53.606Z,952.61
2019-01-11T08:51:43.133Z,952.60
2019-01-11T08:52:52.653Z,952.64
2019-01-11T08:53:53.709Z,952.62
2019-01-11T08:54:45.898Z,952.60
2019-01-11T08:55:44.078Z,952.59
2019-01-11T08:56:54.700Z,952.65
2019-01-11T08:57:54.585Z,952.64
2019-01-11T08:58:54.371Z,952.61
2019-01-11T08:59:53.614Z,952.62
2019-01-11T09:00:43.028Z,952.61
2019-01-11T09:03:41.336Z,952.66
2019-01-11T09:04:52.604Z,952.65
2019-01-11T09:05:41.275Z,952.66
2019-01-11T09:06:52.643Z,952.71
2019-01-11T09:07:52.597Z,952.67
2019-01-11T09:08:51.024Z,952.67
2019-01-11T09:11:04.531Z,952.73
2019-01-11T09:13:15.073Z,952.65
2019-01-11T09:14:24.342Z,952.68
2019-01-11T09:16:28.821Z,952.56
2019-01-11T09:18:40.174Z,952.63
2019-01-11T09:19:40.115Z,952.65
2019-01-11T09:20:52.653Z,952.63
2019-01-11T09:21:49.882Z,952.60
2019-01-11T09:22:49.756Z,952.58
2019-01-11T09:23:54.282Z,952.57
2019-01-11T09:24:50.634Z,952.54
2019-01-11T09:25:51.715Z,952.52
2019-01-11T09:26:49.449Z,952.53
2019-01-11T09:27:39.987Z,952.49
2019-01-11T09:28:39.946Z,952.45
2019-01-11T09:29:49.623Z,952.49
2019-01-11T09:32:04.708Z,952.45
2019-01-11T09:33:03.768Z,952.46
2019-01-11T09:34:13.629Z,952.41
2019-01-11T09:35:03.795Z,952.40
2019-01-11T09:36:12.396Z,952.43
2019-01-11T09:37:03.728Z,952.37
2019-01-11T09:38:14.740Z,952.42
2019-01-11T09:39:14.155Z,952.38
2019-01-11T09:40:03.691Z,952.39
2019-01-11T09:41:12.458Z,952.34
2019-01-11T09:42:03.687Z,952.34
2019-01-11T09:43:03.709Z,952.33
2019-01-11T09:44:12.504Z,952.35
2019-01-11T09:45:15.279Z,952.26
2019-01-11T09:46:04.472Z,952.31
2019-01-11T09:47:03.627Z,952.28
2019-01-11T09:48:08.455Z,952.25
2019-01-11T09:49:20.979Z,952.17
2019-01-11T09:50:03.570Z,952.16
2019-01-11T09:51:03.599Z,952.14
2019-01-11T09:52:18.068Z,952.19
2019-01-11T09:53:03.578Z,952.14
2019-01-11T09:54:03.565Z,952.15
2019-01-11T09:55:03.578Z,952.10
2019-01-11T09:56:08.509Z,952.11
2019-01-11T09:57:21.941Z,952.13
2019-01-11T09:58:03.758Z,952.14
2019-01-11T09:59:03.524Z,952.11
2019-01-11T10:00:16.719Z,952.04
2019-01-11T10:01:03.622Z,952.05
2019-01-11T10:02:03.467Z,952.06
2019-01-11T10:03:04.407Z,952.01
2019-01-11T10:04:03.402Z,952.01
2019-01-11T10:05:03.383Z,951.98
2019-01-11T10:06:04.396Z,951.98
2019-01-11T10:07:03.366Z,951.98
2019-01-11T10:08:03.396Z,951.97
2019-01-11T10:09:13.326Z,952.02
2019-01-11T10:10:03.370Z,951.96
2019-01-11T10:11:20.621Z,951.95
2019-01-11T10:12:04.319Z,951.87
2019-01-11T10:13:03.294Z,951.92
2019-01-11T10:14:19.977Z,951.92
2019-01-11T10:15:06.336Z,951.88
2019-01-11T10:16:05.054Z,951.91
2019-01-11T10:17:03.322Z,951.94
2019-01-11T10:18:14.845Z,951.89
2019-01-11T10:19:03.326Z,951.87
2019-01-11T10:20:03.291Z,951.86
2019-01-11T10:22:37.639Z,951.82
2019-01-11T10:23:16.597Z,951.85
2019-01-11T10:24:16.669Z,951.84
2019-01-11T10:25:16.501Z,951.84
2019-01-11T10:26:17.480Z,951.82
2019-01-11T10:27:18.573Z,951.82
2019-01-11T10:28:17.455Z,951.84
2019-01-11T10:29:16.508Z,951.86
2019-01-11T10:30:16.433Z,951.81
2019-01-11T10:31:16.422Z,951.85
2019-01-11T10:32:16.412Z,951.86
2019-01-11T10:33:26.405Z,951.85
2019-01-11T10:34:16.479Z,951.80
2019-01-11T10:35:17.285Z,951.80
2019-01-11T10:36:16.435Z,951.76
2019-01-11T10:37:38.273Z,951.77
2019-01-11T10:38:16.335Z,951.81
2019-01-11T10:39:16.343Z,951.83
2019-01-11T10:40:16.324Z,951.83
2019-01-11T10:41:16.306Z,951.81
2019-01-11T10:42:17.315Z,951.79
2019-01-11T10:43:16.281Z,951.79
2019-01-11T10:44:17.590Z,951.78
2019-01-11T10:45:16.302Z,951.76
2019-01-11T10:46:16.252Z,951.79
2019-01-11T10:47:16.262Z,951.82
2019-01-11T10:48:17.249Z,951.83
2019-01-11T10:49:16.216Z,951.79
2019-01-11T10:50:16.215Z,951.80
2019-01-11T10:51:19.030Z,951.79
2019-01-11T10:52:16.191Z,951.79
2019-01-11T10:53:16.169Z,951.81
2019-01-11T10:54:16.182Z,951.76
2019-01-11T10:55:16.150Z,951.70
2019-01-11T10:56:18.673Z,951.69
2019-01-11T10:57:16.149Z,951.69
2019-01-11T10:58:16.675Z,951.63
2019-01-11T10:59:16.098Z,951.62
2019-01-11T11:00:16.102Z,951.64
2019-01-11T11:01:16.082Z,951.65
2019-01-11T11:02:16.667Z,951.64
2019-01-11T11:03:16.082Z,951.69
2019-01-11T11:04:16.048Z,951.67
2019-01-11T11:05:16.041Z,951.67
2019-01-11T11:06:16.031Z,951.65
2019-01-11T11:08:29.069Z,951.63
2019-01-11T11:09:29.267Z,951.63
2019-01-11T11:10:28.270Z,951.60
2019-01-11T11:11:28.237Z,951.56
2019-01-11T11:12:28.226Z,951.55
2019-01-11T11:13:28.286Z,951.54
2019-01-11T11:14:28.237Z,951.59
2019-01-11T11:15:28.215Z,951.46
2019-01-11T11:16:28.184Z,951.47
2019-01-11T11:17:28.171Z,951.50
2019-01-11T11:18:39.148Z,951.45
2019-01-11T11:19:29.055Z,951.42
2019-01-11T11:20:28.189Z,951.42
2019-01-11T11:21:34.716Z,951.41
2019-01-11T11:22:50.416Z,951.43
2019-01-11T11:23:28.134Z,951.38
2019-01-11T11:24:29.467Z,951.41
2019-01-11T11:25:30.131Z,951.36
2019-01-11T11:26:28.070Z,951.28
2019-01-11T11:27:28.061Z,951.32
2019-01-11T11:28:50.705Z,951.29
2019-01-11T11:29:28.114Z,951.26
2019-01-11T11:30:28.723Z,951.26
2019-01-11T11:31:29.116Z,951.21
2019-01-11T11:33:08.956Z,951.15
2019-01-11T11:33:28.152Z,951.22
2019-01-11T11:34:28.212Z,951.12
2019-01-11T11:35:48.376Z,951.13
2019-01-11T11:36:42.018Z,951.04
2019-01-11T11:37:28.011Z,951.06
2019-01-11T11:38:27.961Z,951.06
2019-01-11T11:39:27.977Z,951.04
2019-01-11T11:40:27.973Z,951.05
2019-01-11T11:41:27.946Z,951.00
2019-01-11T11:42:54.807Z,951.03
2019-01-11T11:43:28.144Z,951.02
2019-01-11T11:44:37.952Z,951.07
2019-01-11T11:45:27.931Z,951.07
2019-01-11T11:46:28.846Z,951.02
2019-01-11T11:47:29.680Z,950.97
2019-01-11T11:48:46.388Z,950.96
2019-01-11T11:49:28.071Z,950.92
2019-01-11T11:50:39.303Z,950.91
2019-01-11T11:51:28.819Z,950.91
2019-01-11T11:52:29.820Z,950.92
2019-01-11T11:53:47.731Z,950.85
2019-01-11T11:54:37.741Z,950.85
2019-01-11T11:55:27.815Z,950.83
2019-01-11T11:56:27.810Z,950.79
2019-01-11T11:58:41.325Z,950.71
2019-01-11T11:59:58.896Z,950.70
2019-01-11T12:01:27.882Z,950.67
2019-01-11T12:01:46.620Z,950.64
2019-01-11T12:02:40.182Z,950.60
2019-01-11T12:03:40.075Z,950.61
2019-01-11T12:04:56.900Z,950.62
2019-01-11T12:05:54.261Z,950.64
2019-01-11T12:07:00.386Z,950.70
2019-01-11T12:07:55.504Z,950.66
2019-01-11T12:08:40.007Z,950.70
2019-01-11T12:09:40.036Z,950.68
2019-01-11T12:10:40.002Z,950.70
2019-01-11T12:11:39.989Z,950.70
2019-01-11T12:12:39.983Z,950.66
2019-01-11T12:13:52.626Z,950.61
2019-01-11T12:14:40.821Z,950.55
2019-01-11T12:15:39.950Z,950.59
2019-01-11T12:16:39.929Z,950.54
2019-01-11T12:17:39.969Z,950.60
2019-01-11T12:18:40.789Z,950.52
2019-01-11T12:19:39.913Z,950.54
2019-01-11T12:20:40.041Z,950.47
2019-01-11T12:21:40.766Z,950.52
2019-01-11T12:22:57.927Z,950.48
2019-01-11T12:23:39.831Z,950.46
2019-01-11T12:24:48.507Z,950.50
2019-01-11T12:25:39.830Z,950.49
2019-01-11T12:26:39.911Z,950.42
2019-01-11T12:27:39.823Z,950.39
2019-01-11T12:31:03.994Z,950.39
2019-01-11T12:32:02.945Z,950.40
2019-01-11T12:33:01.837Z,950.40
2019-01-11T12:34:15.483Z,950.37
2019-01-11T12:35:01.744Z,950.34
2019-01-11T12:36:01.710Z,950.24
2019-01-11T12:37:02.800Z,950.26
2019-01-11T12:38:19.944Z,950.23
2019-01-11T12:39:01.657Z,950.22
2019-01-11T12:40:02.624Z,950.19
2019-01-11T12:41:17.370Z,950.20
2019-01-11T12:42:04.282Z,950.19
2019-01-11T12:43:01.687Z,950.21
2019-01-11T12:44:10.397Z,950.17
2019-01-11T12:45:01.597Z,950.20
2019-01-11T12:46:04.348Z,950.20
2019-01-11T12:47:02.613Z,950.18
2019-01-11T12:48:18.407Z,950.17
2019-01-11T12:49:01.606Z,950.18
2019-01-11T12:50:16.666Z,950.11
2019-01-11T12:51:01.621Z,950.08
2019-01-11T12:54:08.687Z,950.12
2019-01-11T12:56:21.948Z,950.03
2019-01-11T12:58:14.939Z,949.99
2019-01-11T12:59:12.852Z,950.00
2019-01-11T13:00:12.818Z,949.96
2019-01-11T13:01:12.779Z,949.92
2019-01-11T13:02:12.796Z,949.94
2019-01-11T13:03:15.800Z,949.88
2019-01-11T13:04:12.773Z,949.84
2019-01-11T13:05:12.761Z,949.86
2019-01-11T13:06:15.629Z,949.87
2019-01-11T13:07:13.575Z,949.86
2019-01-11T13:08:12.796Z,949.86
2019-01-11T13:09:13.685Z,949.83
2019-01-11T13:10:13.621Z,949.88
2019-01-11T13:11:12.658Z,949.84
2019-01-11T13:12:12.731Z,949.80
2019-01-11T13:13:13.662Z,949.86
2019-01-11T13:14:12.793Z,949.78
2019-01-11T13:15:13.579Z,949.84
2019-01-11T13:16:12.612Z,949.78
2019-01-11T13:17:12.651Z,949.82
2019-01-11T13:18:12.560Z,949.75
2019-01-11T13:19:12.536Z,949.77
2019-01-11T13:20:12.542Z,949.73
2019-01-11T13:21:12.527Z,949.75
2019-01-11T13:22:12.535Z,949.72
2019-01-11T13:23:12.502Z,949.68
2019-01-11T13:24:12.486Z,949.67
2019-01-11T13:25:12.499Z,949.64
2019-01-11T13:26:12.461Z,949.55
2019-01-11T13:27:12.453Z,949.61
2019-01-11T13:28:12.451Z,949.66
2019-01-11T13:29:24.460Z,949.66
2019-01-11T13:30:12.523Z,949.62
2019-01-11T13:31:12.462Z,949.60
2019-01-11T13:32:12.524Z,949.61
2019-01-11T13:33:12.429Z,949.53
2019-01-11T13:34:12.378Z,949.56
2019-01-11T13:35:12.366Z,949.53
2019-01-11T13:36:12.377Z,949.53
2019-01-11T13:37:12.343Z,949.49
2019-01-11T13:38:12.331Z,949.46
2019-01-11T13:39:12.367Z,949.56
2019-01-11T13:40:12.305Z,949.49
2019-01-11T13:41:12.301Z,949.45
2019-01-11T13:42:13.084Z,949.48
2019-01-11T13:43:12.273Z,949.52
2019-01-11T13:44:12.316Z,949.53
2019-01-11T13:45:12.258Z,949.54
2019-01-11T13:46:12.254Z,949.49
2019-01-11T13:47:12.231Z,949.51